Time;durP1;ratioP1;P1;durP2;ratioP2;P2;SDS_P1;SDS_P2;PMS_P1;PMS_P2;Temp;Humidity;BMP_temperature;BMP_pressure;BME280_temperature;BME280_humidity;BME280_pressure;Samples;Min_cycle;Max_cycle;Signal;HPM_P1;HPM_P2
2023/05/23 00:01:48;;;;;;;6.50;4.40;;;;;;;12.51;54.70;99405.86;436739;1251;139190;-62
2023/05/23 00:11:54;;;;;;;5.80;4.70;;;;;;;12.36;55.17;99397.33;437354;1248;139389;-62
2023/05/23 00:22:00;;;;;;;5.20;4.60;;;;;;;12.21;55.56;99392.14;436706;1251;139454;-62
2023/05/23 00:32:06;;;;;;;6.80;4.80;;;;;;;12.08;56.12;99386.23;436728;1251;139427;-61
2023/05/23 00:42:12;;;;;;;8.40;4.40;;;;;;;11.99;56.62;99382.28;436804;1253;139991;-61
2023/05/23 00:52:18;;;;;;;5.30;4.40;;;;;;;11.95;56.80;99378.02;436678;1253;138834;-61
2023/05/23 01:02:24;;;;;;;4.00;3.60;;;;;;;11.91;56.97;99377.59;436907;1253;139207;-61
2023/05/23 01:12:37;;;;;;;4.80;4.30;;;;;;;11.79;57.30;99378.98;437478;1251;139225;-60
2023/05/23 01:23:11;;;;;;;5.80;4.00;;;;;;;11.69;57.57;99376.92;436945;1251;138747;-61
2023/05/23 01:33:20;;;;;;;6.40;3.90;;;;;;;11.61;57.95;99370.07;437382;1248;139285;-62
2023/05/23 01:43:26;;;;;;;7.30;3.80;;;;;;;11.56;58.22;99362.17;436793;1252;139147;-61
2023/05/23 01:53:34;;;;;;;4.00;3.50;;;;;;;11.57;58.28;99356.92;437648;1251;138892;-62
2023/05/23 02:03:40;;;;;;;7.90;4.60;;;;;;;11.56;58.33;99355.17;436936;1250;139685;-61
2023/05/23 02:13:46;;;;;;;5.00;4.20;;;;;;;11.55;58.46;99350.35;437571;1252;138662;-61
2023/05/23 02:23:52;;;;;;;5.20;4.50;;;;;;;11.61;58.53;99335.16;436573;1251;139203;-62
2023/05/23 02:33:58;;;;;;;4.50;3.80;;;;;;;11.66;58.31;99327.46;437017;1251;139305;-62
2023/05/23 02:44:04;;;;;;;4.60;3.90;;;;;;;11.69;58.30;99326.40;436836;1251;138840;-61
2023/05/23 02:54:10;;;;;;;6.80;4.50;;;;;;;11.74;58.43;99318.16;436743;1251;138579;-60
2023/05/23 03:04:15;;;;;;;7.20;4.40;;;;;;;11.94;58.36;99318.14;437594;1248;138799;-61
2023/05/23 03:14:21;;;;;;;4.60;3.80;;;;;;;12.65;57.96;99310.31;436845;1248;140370;-61
2023/05/23 03:24:27;;;;;;;6.10;4.20;;;;;;;13.24;56.56;99299.26;436756;1248;138752;-61
2023/05/23 03:34:35;;;;;;;6.40;3.80;;;;;;;13.20;56.39;99301.20;436983;1248;141727;-63
2023/05/23 03:44:41;;;;;;;5.00;4.00;;;;;;;13.34;56.13;99301.44;436928;1253;138930;-63
2023/05/23 03:54:47;;;;;;;5.50;4.60;;;;;;;13.62;55.76;99296.45;436514;1253;139270;-64
2023/05/23 04:04:55;;;;;;;6.50;3.80;;;;;;;14.17;55.20;99293.71;436981;1251;142690;-63
2023/05/23 04:15:02;;;;;;;4.80;3.50;;;;;;;19.46;51.86;99281.15;437605;1250;139446;-63
2023/05/23 04:25:10;;;;;;;5.10;3.60;;;;;;;25.47;43.60;99270.29;437009;1253;138359;-63
2023/05/23 04:35:16;;;;;;;8.30;3.80;;;;;;;29.19;37.07;99267.71;437626;1253;138824;-62
2023/05/23 04:45:22;;;;;;;8.50;3.30;;;;;;;31.79;32.54;99268.77;436899;1248;140059;-62
2023/05/23 04:55:28;;;;;;;7.30;3.00;;;;;;;33.90;29.04;99261.24;437698;1253;138878;-62
2023/05/23 05:05:34;;;;;;;8.30;3.00;;;;;;;35.26;26.42;99257.64;436882;1253;141451;-64
2023/05/23 05:15:39;;;;;;;4.20;2.70;;;;;;;37.07;24.15;99259.36;436928;1253;138947;-62
2023/05/23 05:25:46;;;;;;;7.00;3.40;;;;;;;38.10;22.43;99249.08;437266;1253;138748;-63
2023/05/23 05:35:52;;;;;;;3.50;3.30;;;;;;;39.38;20.64;99237.11;437402;1253;139249;-62
2023/05/23 05:45:58;;;;;;;3.80;2.40;;;;;;;39.77;19.89;99230.34;436519;1253;139255;-61
2023/05/23 05:56:07;;;;;;;2.70;2.30;;;;;;;41.95;18.80;99224.31;436748;1251;138109;-61
2023/05/23 06:06:14;;;;;;;3.30;2.60;;;;;;;44.26;17.49;99218.63;437841;1251;140459;-62
2023/05/23 06:16:19;;;;;;;3.60;2.60;;;;;;;45.53;16.46;99206.73;436902;1252;139102;-61
2023/05/23 06:26:25;;;;;;;3.20;3.00;;;;;;;45.43;15.42;99207.80;436644;1253;138619;-61
2023/05/23 06:36:31;;;;;;;2.20;2.00;;;;;;;45.43;15.06;99201.66;437312;1253;139046;-62
2023/05/23 06:46:37;;;;;;;2.90;2.20;;;;;;;46.53;14.52;99192.16;436268;1251;138861;-62
2023/05/23 06:56:45;;;;;;;4.30;2.50;;;;;;;46.99;13.92;99185.30;437631;1253;138216;-62
2023/05/23 07:06:51;;;;;;;4.60;3.20;;;;;;;49.08;13.35;99176.78;436577;1253;139011;-62
2023/05/23 07:16:57;;;;;;;3.20;3.00;;;;;;;49.88;12.85;99166.61;437714;1253;139327;-62
2023/05/23 07:27:03;;;;;;;4.10;3.90;;;;;;;50.14;12.49;99153.25;436759;1254;166163;-61
2023/05/23 07:37:09;;;;;;;3.80;3.50;;;;;;;49.83;12.08;99153.02;436337;1254;138772;-61
2023/05/23 07:47:15;;;;;;;3.20;2.90;;;;;;;48.95;12.30;99147.19;436911;1253;138681;-62
2023/05/23 07:57:20;;;;;;;3.20;2.00;;;;;;;46.02;12.57;99139.98;437316;1253;141121;-62
2023/05/23 08:07:26;;;;;;;2.40;2.20;;;;;;;37.18;15.38;99131.73;436814;1254;138270;-62
2023/05/23 08:17:32;;;;;;;2.80;2.40;;;;;;;32.30;18.71;99130.03;436501;1253;138799;-61
2023/05/23 08:27:38;;;;;;;2.50;2.30;;;;;;;30.35;20.42;99129.90;437584;1253;139298;-62
2023/05/23 08:37:45;;;;;;;2.50;1.70;;;;;;;28.93;21.48;99130.08;436715;1251;138308;-62
2023/05/23 08:47:54;;;;;;;4.50;2.30;;;;;;;27.72;22.64;99126.59;436845;1251;138266;-62
2023/05/23 08:58:00;;;;;;;2.40;1.80;;;;;;;27.51;23.30;99121.18;436657;1253;139759;-62
2023/05/23 09:08:06;;;;;;;3.20;2.30;;;;;;;27.21;23.73;99120.98;436571;1251;138381;-62
2023/05/23 09:18:13;;;;;;;5.00;2.60;;;;;;;26.35;24.27;99118.86;437071;1251;139727;-62
2023/05/23 09:28:19;;;;;;;2.40;2.10;;;;;;;26.08;24.81;99117.63;436667;1251;139542;-61
2023/05/23 09:38:26;;;;;;;3.30;2.30;;;;;;;25.88;24.77;99118.42;436103;1253;138738;-61
2023/05/23 09:48:32;;;;;;;4.40;2.30;;;;;;;25.63;25.24;99111.64;436825;1253;138537;-62
2023/05/23 09:58:38;;;;;;;3.30;2.20;;;;;;;25.63;25.56;99111.39;437657;1251;138830;-62
2023/05/23 10:08:46;;;;;;;2.50;2.30;;;;;;;25.55;25.72;99108.58;437144;1251;138380;-63
2023/05/23 10:18:56;;;;;;;4.30;2.20;;;;;;;25.39;26.17;99102.08;437033;1253;138476;-62
2023/05/23 10:29:04;;;;;;;5.00;2.60;;;;;;;25.66;26.78;99095.34;437603;1253;138947;-62
2023/05/23 10:39:16;;;;;;;2.80;2.20;;;;;;;25.46;26.63;99082.98;437370;1253;139499;-62
2023/05/23 10:49:37;;;;;;;3.30;2.50;;;;;;;24.84;27.40;99066.63;437699;1253;139237;-61
2023/05/23 10:59:43;;;;;;;4.20;2.50;;;;;;;24.46;27.75;99058.05;438042;1251;139108;-62
2023/05/23 11:10:08;;;;;;;3.70;2.70;;;;;;;24.42;27.80;99051.22;436863;1251;139380;-62
2023/05/23 11:20:15;;;;;;;2.70;2.30;;;;;;;23.99;27.80;99045.93;437308;1252;139861;-62
2023/05/23 11:30:21;;;;;;;5.50;3.80;;;;;;;23.71;27.93;99048.63;440145;1250;139205;-62
2023/05/23 11:40:29;;;;;;;5.50;4.40;;;;;;;23.91;27.78;99042.55;436707;1253;139492;-62
2023/05/23 11:50:43;;;;;;;4.40;3.70;;;;;;;24.21;27.69;99042.64;437157;1251;138581;-62
2023/05/23 12:00:49;;;;;;;3.70;3.40;;;;;;;24.75;27.30;99044.36;437744;1250;138206;-63
2023/05/23 12:11:00;;;;;;;4.60;3.10;;;;;;;25.18;26.96;99036.83;437391;1251;138616;-63
2023/05/23 12:21:07;;;;;;;3.10;2.80;;;;;;;25.20;26.81;99028.77;437752;1251;138735;-62
2023/05/23 12:31:17;;;;;;;5.20;3.60;;;;;;;25.09;27.01;99022.30;437207;1251;138335;-63
2023/05/23 12:41:23;;;;;;;5.40;3.80;;;;;;;25.05;27.34;99022.13;436641;1250;139622;-63
2023/05/23 12:51:29;;;;;;;4.10;3.70;;;;;;;25.13;27.31;99009.11;436614;1252;138194;-61
2023/05/23 13:01:35;;;;;;;4.40;4.00;;;;;;;25.11;27.44;99004.52;436979;1253;138729;-61
2023/05/23 13:11:43;;;;;;;5.60;4.20;;;;;;;25.16;27.63;99002.08;436860;1253;139416;-62
2023/05/23 13:21:47;;;;;;;;;;;;;;;25.16;27.76;98997.29;437408;1253;138836;-64
2023/05/23 13:31:54;;;;;;;4.60;3.80;;;;;;;25.26;27.80;98996.28;437102;1251;124770;-62
2023/05/23 13:42:00;;;;;;;4.70;4.00;;;;;;;25.20;27.31;98991.63;436661;1251;138733;-61
2023/05/23 13:52:07;;;;;;;4.10;3.70;;;;;;;25.07;27.24;98987.50;437074;1251;139021;-63
2023/05/23 14:02:13;;;;;;;5.60;4.90;;;;;;;25.05;27.18;98973.45;437943;1251;138752;-63
2023/05/23 14:12:19;;;;;;;6.30;4.10;;;;;;;25.32;27.77;98969.48;436892;1253;141783;-63
2023/05/23 14:22:25;;;;;;;4.30;3.30;;;;;;;25.39;27.32;98967.40;436824;1253;138219;-62
2023/05/23 14:32:37;;;;;;;6.40;3.90;;;;;;;25.05;27.35;98963.45;436852;1253;139502;-62
2023/05/23 14:42:43;;;;;;;3.90;3.50;;;;;;;24.88;27.83;98965.33;436676;1249;138398;-62
2023/05/23 14:52:49;;;;;;;5.10;3.90;;;;;;;24.80;27.97;98963.06;436821;1251;138837;-64
2023/05/23 15:02:55;;;;;;;3.70;3.40;;;;;;;24.69;28.10;98955.11;437243;1248;138458;-61
2023/05/23 15:13:02;;;;;;;4.70;3.60;;;;;;;24.55;28.63;98959.48;437614;1251;139473;-64
2023/05/23 15:23:09;;;;;;;6.30;4.10;;;;;;;24.31;28.74;98963.65;437384;1248;138876;-62
2023/05/23 15:33:15;;;;;;;4.80;4.10;;;;;;;24.19;29.04;98958.69;436999;1253;138550;-62
2023/05/23 15:43:21;;;;;;;7.90;4.10;;;;;;;24.06;29.36;98955.84;437786;1248;139496;-62
2023/05/23 15:53:26;;;;;;;12.20;6.90;;;;;;;23.84;29.44;98953.20;437153;1253;140076;-61
2023/05/23 16:03:35;;;;;;;7.00;4.50;;;;;;;23.70;29.64;98948.98;436853;1251;139315;-62
2023/05/23 16:13:41;;;;;;;8.80;4.40;;;;;;;23.45;30.45;98937.08;437505;1251;138311;-62
2023/05/23 16:23:47;;;;;;;5.70;3.50;;;;;;;23.12;31.78;98929.45;435980;1253;139499;-61
2023/05/23 16:33:52;;;;;;;7.10;3.70;;;;;;;22.66;32.43;98931.52;436840;1249;140125;-62
2023/05/23 16:43:58;;;;;;;4.90;3.90;;;;;;;22.35;33.25;98941.51;436316;1251;138153;-62
2023/05/23 16:54:04;;;;;;;4.90;4.00;;;;;;;22.12;34.01;98941.09;436760;1250;138872;-62
2023/05/23 17:04:10;;;;;;;4.50;3.10;;;;;;;21.93;34.84;98938.70;437341;1251;138364;-62
2023/05/23 17:14:16;;;;;;;5.80;3.50;;;;;;;21.75;35.32;98942.89;437174;1248;139473;-62
2023/05/23 17:24:22;;;;;;;4.90;3.10;;;;;;;21.50;35.73;98946.59;437083;1248;140522;-62
2023/05/23 17:34:27;;;;;;;6.60;3.60;;;;;;;21.29;36.36;98951.84;436907;1252;139040;-62
2023/05/23 17:44:33;;;;;;;6.70;3.50;;;;;;;21.01;37.12;98948.32;437347;1248;138172;-62
2023/05/23 17:54:39;;;;;;;4.20;3.30;;;;;;;20.80;37.66;98948.06;437456;1252;138773;-61
2023/05/23 18:04:45;;;;;;;8.60;5.40;;;;;;;20.58;38.12;98953.77;437603;1252;139262;-61
2023/05/23 18:14:51;;;;;;;10.10;5.20;;;;;;;20.36;38.83;98957.90;437454;1251;138187;-62
2023/05/23 18:24:57;;;;;;;6.20;3.90;;;;;;;20.18;39.19;98964.39;437134;1248;140540;-62
2023/05/23 18:35:03;;;;;;;5.40;3.20;;;;;;;20.04;39.68;98971.48;436869;1252;138543;-62
2023/05/23 18:45:11;;;;;;;7.50;3.40;;;;;;;19.93;40.01;98974.91;439613;1253;138738;-63
2023/05/23 18:55:18;;;;;;;3.80;3.40;;;;;;;19.80;40.18;98986.23;437880;1250;139124;-61
2023/05/23 19:05:25;;;;;;;4.00;3.60;;;;;;;19.69;40.09;98995.30;436498;1253;139927;-61
2023/05/23 19:15:31;;;;;;;5.00;3.50;;;;;;;19.59;40.27;98999.34;437950;1251;138709;-62
2023/05/23 19:25:38;;;;;;;5.30;3.80;;;;;;;19.55;40.08;99004.43;437075;1251;144603;-63
2023/05/23 19:35:44;;;;;;;13.20;6.20;;;;;;;19.51;40.08;99003.89;436913;1251;139205;-65
2023/05/23 19:45:50;;;;;;;10.90;6.00;;;;;;;19.46;40.03;99006.17;436884;1248;138857;-63
2023/05/23 19:55:56;;;;;;;9.10;4.50;;;;;;;19.42;40.14;99015.65;437072;1253;138387;-63
2023/05/23 20:06:02;;;;;;;7.10;4.70;;;;;;;19.34;40.43;99021.00;436950;1252;138326;-63
2023/05/23 20:16:08;;;;;;;7.10;4.30;;;;;;;19.25;40.91;99018.75;436662;1248;138733;-63
2023/05/23 20:26:14;;;;;;;6.60;4.40;;;;;;;19.15;41.90;99022.63;436773;1253;138283;-63
2023/05/23 20:36:20;;;;;;;10.50;5.30;;;;;;;19.05;43.77;99027.62;437307;1248;138794;-66
2023/05/23 20:46:26;;;;;;;16.30;6.00;;;;;;;18.84;47.54;99037.27;437040;1253;138944;-67
2023/05/23 20:56:32;;;;;;;11.10;6.20;;;;;;;18.54;49.58;99044.94;437105;1253;138941;-67
2023/05/23 21:06:38;;;;;;;9.90;6.50;;;;;;;18.25;50.04;99057.11;437687;1251;139140;-66
2023/05/23 21:16:44;;;;;;;6.90;6.30;;;;;;;18.02;51.35;99064.64;436667;1252;138935;-67
2023/05/23 21:26:50;;;;;;;7.20;6.30;;;;;;;17.84;51.14;99062.16;436783;1251;138309;-66
2023/05/23 21:36:56;;;;;;;9.00;6.90;;;;;;;17.85;49.74;99068.01;436975;1248;139998;-66
2023/05/23 21:47:02;;;;;;;10.30;6.20;;;;;;;17.87;50.30;99074.42;436820;1248;138399;-66
2023/05/23 21:57:07;;;;;;;8.50;6.80;;;;;;;17.81;52.05;99077.05;436716;1251;138961;-67
2023/05/23 22:07:13;;;;;;;6.60;5.90;;;;;;;17.68;53.29;99079.04;436965;1253;138731;-67
2023/05/23 22:17:21;;;;;;;9.10;7.00;;;;;;;17.43;53.73;99084.74;436997;1251;139231;-66
2023/05/23 22:27:27;;;;;;;9.10;7.00;;;;;;;17.35;54.42;99077.60;437200;1252;138827;-61
2023/05/23 22:37:32;;;;;;;7.50;6.70;;;;;;;17.29;55.22;99073.93;436576;1251;138480;-60
2023/05/23 22:47:39;;;;;;;11.20;7.10;;;;;;;17.15;56.43;99058.20;436644;1253;139391;-60
2023/05/23 22:57:45;;;;;;;10.40;7.60;;;;;;;16.97;57.32;99065.45;436714;1253;139043;-62
2023/05/23 23:07:50;;;;;;;9.80;7.40;;;;;;;16.79;59.54;99070.20;436757;1253;139018;-61
2023/05/23 23:17:56;;;;;;;9.30;8.40;;;;;;;16.64;61.10;99064.77;435945;1253;138701;-61
2023/05/23 23:28:02;;;;;;;11.60;8.00;;;;;;;16.54;62.17;99055.77;436467;1251;140455;-61
2023/05/23 23:38:08;;;;;;;7.90;7.10;;;;;;;16.47;62.66;99049.93;436757;1251;139331;-62
2023/05/23 23:48:14;;;;;;;12.00;8.80;;;;;;;16.34;63.74;99052.27;437231;1248;140419;-62
2023/05/23 23:58:20;;;;;;;11.70;10.10;;;;;;;16.28;64.48;99054.20;437055;1251;139789;-61
